createdAt,value
2023-03-14T00:01:13.211Z,6.79
2023-03-14T00:03:39.731Z,6.50
2023-03-14T00:06:07.163Z,6.64
2023-03-14T00:08:34.005Z,6.14
2023-03-14T00:11:06.256Z,6.29
2023-03-14T00:13:32.782Z,6.61
2023-03-14T00:16:08.216Z,6.34
2023-03-14T00:18:35.156Z,6.18
2023-03-14T00:21:03.176Z,5.58
2023-03-14T00:23:31.623Z,5.11
2023-03-14T00:26:10.559Z,5.08
2023-03-14T00:28:37.620Z,4.75
2023-03-14T00:31:06.236Z,4.58
2023-03-14T00:33:32.920Z,4.38
2023-03-14T00:36:02.237Z,4.48
2023-03-14T00:38:29.115Z,3.77
2023-03-14T00:40:55.682Z,3.75
2023-03-14T00:43:22.770Z,3.48
2023-03-14T00:45:53.716Z,3.27
2023-03-14T00:48:21.196Z,3.13
2023-03-14T00:50:48.563Z,3.23
2023-03-14T00:53:15.136Z,3.31
2023-03-14T00:55:43.489Z,3.39
2023-03-14T00:58:14.579Z,2.84
2023-03-14T01:00:42.100Z,3.03
2023-03-14T01:03:09.783Z,2.83
2023-03-14T01:05:36.750Z,3.07
2023-03-14T01:08:04.032Z,2.69
2023-03-14T01:10:31.314Z,2.80
2023-03-14T01:12:57.917Z,2.70
2023-03-14T01:15:25.248Z,2.64
2023-03-14T01:17:51.821Z,2.86
2023-03-14T01:20:18.518Z,2.75
2023-03-14T01:22:45.168Z,2.70
2023-03-14T01:25:16.901Z,2.56
2023-03-14T01:27:43.778Z,2.28
2023-03-14T01:30:12.343Z,2.22
2023-03-14T01:32:39.910Z,2.38
2023-03-14T01:35:06.652Z,2.41
2023-03-14T01:37:33.329Z,2.43
2023-03-14T01:39:59.954Z,2.45
2023-03-14T01:42:26.455Z,2.30
2023-03-14T01:44:56.482Z,2.31
2023-03-14T01:47:23.984Z,2.37
2023-03-14T01:50:08.234Z,2.40
2023-03-14T01:52:46.377Z,2.02
2023-03-14T01:55:20.497Z,2.23
2023-03-14T01:57:59.736Z,2.22
2023-03-14T02:00:26.782Z,2.17
2023-03-14T02:02:58.014Z,2.00
2023-03-14T02:05:28.018Z,2.12
2023-03-14T02:07:57.402Z,2.11
2023-03-14T02:10:28.502Z,2.13
2023-03-14T02:12:57.762Z,2.11
2023-03-14T02:15:24.723Z,2.16
2023-03-14T02:17:52.702Z,2.10
2023-03-14T02:20:29.011Z,2.03
2023-03-14T02:22:55.773Z,2.15
2023-03-14T02:25:44.522Z,2.08
2023-03-14T02:28:11.985Z,2.20
2023-03-14T02:30:38.697Z,1.92
2023-03-14T02:33:12.189Z,2.01
2023-03-14T02:36:08.263Z,1.96
2023-03-14T02:38:42.569Z,1.94
2023-03-14T02:41:09.159Z,2.26
2023-03-14T02:43:35.750Z,2.13
2023-03-14T02:46:05.136Z,2.21
2023-03-14T02:48:45.422Z,2.25
2023-03-14T02:51:13.600Z,2.46
2023-03-14T02:53:42.109Z,2.83
2023-03-14T02:56:09.580Z,2.67
2023-03-14T02:58:36.691Z,2.71
2023-03-14T03:01:03.407Z,2.81
2023-03-14T03:03:30.059Z,2.79
2023-03-14T03:05:57.918Z,2.74
2023-03-14T03:08:27.439Z,2.95
2023-03-14T03:10:55.130Z,2.87
2023-03-14T03:13:21.728Z,3.20
2023-03-14T03:15:48.298Z,3.32
2023-03-14T03:18:15.091Z,3.19
2023-03-14T03:20:41.849Z,2.82
2023-03-14T03:23:08.539Z,3.04
2023-03-14T03:25:35.080Z,3.16
2023-03-14T03:28:01.645Z,3.03
2023-03-14T03:30:28.227Z,3.04
2023-03-14T03:32:54.879Z,3.15
2023-03-14T03:35:21.509Z,3.34
2023-03-14T03:37:48.065Z,3.04
2023-03-14T03:40:14.911Z,3.14
2023-03-14T03:42:41.483Z,3.09
2023-03-14T03:45:08.586Z,3.06
2023-03-14T03:47:35.140Z,3.01
2023-03-14T03:50:02.001Z,3.04
2023-03-14T03:52:28.528Z,2.80
2023-03-14T03:54:55.042Z,3.04
2023-03-14T03:57:21.729Z,2.91
2023-03-14T03:59:48.298Z,2.78
2023-03-14T04:02:14.864Z,2.68
2023-03-14T04:04:41.624Z,2.93
2023-03-14T04:07:10.294Z,2.69
2023-03-14T04:09:38.700Z,2.68
2023-03-14T04:12:05.264Z,2.81
2023-03-14T04:14:31.774Z,2.49
2023-03-14T04:16:58.337Z,2.76
2023-03-14T04:19:24.890Z,2.51
2023-03-14T04:21:51.480Z,2.66
2023-03-14T04:24:18.036Z,2.51
2023-03-14T04:26:44.591Z,2.45
2023-03-14T04:29:13.229Z,2.57
2023-03-14T04:31:40.013Z,2.36
2023-03-14T04:34:06.548Z,2.41
2023-03-14T04:36:33.097Z,2.43
2023-03-14T04:38:59.675Z,2.40
2023-03-14T04:41:26.336Z,2.44
2023-03-14T04:43:52.895Z,2.66
2023-03-14T04:46:19.633Z,2.67
2023-03-14T04:48:46.292Z,2.60
2023-03-14T04:51:12.897Z,2.90
2023-03-14T04:53:39.490Z,3.09
2023-03-14T04:56:06.597Z,2.66
2023-03-14T04:58:33.108Z,2.81
2023-03-14T05:01:04.574Z,3.03
2023-03-14T05:03:31.283Z,2.97
2023-03-14T05:05:59.797Z,2.88
2023-03-14T05:08:26.357Z,2.83
2023-03-14T05:10:57.091Z,2.98
2023-03-14T05:13:24.146Z,2.60
2023-03-14T05:15:51.717Z,2.62
2023-03-14T05:18:19.371Z,2.95
2023-03-14T05:20:45.938Z,2.82
2023-03-14T05:23:12.582Z,2.92
2023-03-14T05:25:39.200Z,3.08
2023-03-14T05:28:05.743Z,2.94
2023-03-14T05:30:33.257Z,2.87
2023-03-14T05:32:59.882Z,2.95
2023-03-14T05:35:26.450Z,2.93
2023-03-14T05:37:52.955Z,3.19
2023-03-14T05:40:19.644Z,3.37
2023-03-14T05:42:46.350Z,3.46
2023-03-14T05:45:12.870Z,3.60
2023-03-14T05:47:39.385Z,3.82
2023-03-14T05:50:06.208Z,3.58
2023-03-14T05:52:33.430Z,3.92
2023-03-14T05:55:00.046Z,3.74
2023-03-14T05:57:26.764Z,3.92
2023-03-14T05:59:53.389Z,4.26
2023-03-14T06:02:19.962Z,4.29
2023-03-14T06:04:46.648Z,4.35
2023-03-14T06:07:13.171Z,4.55
2023-03-14T06:09:40.686Z,4.40
2023-03-14T06:12:07.399Z,4.69
2023-03-14T06:14:33.988Z,4.96
2023-03-14T06:17:00.547Z,5.01
2023-03-14T06:19:27.308Z,4.88
2023-03-14T06:21:53.890Z,4.99
2023-03-14T06:24:20.395Z,5.20
2023-03-14T06:26:47.523Z,5.24
2023-03-14T06:29:14.445Z,5.55
2023-03-14T06:31:40.977Z,5.68
2023-03-14T06:34:07.633Z,6.04
2023-03-14T06:36:34.181Z,6.11
2023-03-14T06:39:00.853Z,6.13
2023-03-14T06:41:27.775Z,5.90
2023-03-14T06:43:56.407Z,5.47
2023-03-14T06:46:23.181Z,4.71
2023-03-14T06:48:49.837Z,4.38
2023-03-14T06:51:16.369Z,3.78
2023-03-14T06:53:42.944Z,2.78
2023-03-14T06:56:10.136Z,1.55
2023-03-14T06:58:36.793Z,1.17
2023-03-14T07:01:03.680Z,1.15
2023-03-14T07:03:30.300Z,0.82
2023-03-14T07:05:56.893Z,0.74
2023-03-14T07:08:23.533Z,0.84
2023-03-14T07:10:50.124Z,0.88
2023-03-14T07:13:16.675Z,0.74
2023-03-14T07:15:43.330Z,0.68
2023-03-14T07:18:10.019Z,0.81
2023-03-14T07:20:36.615Z,0.81
2023-03-14T07:23:04.125Z,0.80
2023-03-14T07:25:30.660Z,0.84
2023-03-14T07:27:57.241Z,0.89
2023-03-14T07:30:23.880Z,0.96
2023-03-14T07:32:50.558Z,1.07
2023-03-14T07:35:17.213Z,1.07
2023-03-14T07:37:43.772Z,1.12
2023-03-14T07:40:12.631Z,1.04
2023-03-14T07:42:39.245Z,1.21
2023-03-14T07:45:07.862Z,1.27
2023-03-14T07:47:34.616Z,1.01
2023-03-14T07:50:01.163Z,1.08
2023-03-14T07:52:27.741Z,0.94
2023-03-14T07:54:54.327Z,0.99
2023-03-14T07:57:20.886Z,0.98
2023-03-14T07:59:47.486Z,0.89
2023-03-14T08:02:14.122Z,0.96
2023-03-14T08:04:41.294Z,0.88
2023-03-14T08:07:07.841Z,0.79
2023-03-14T08:09:34.466Z,0.82
2023-03-14T08:12:01.058Z,1.28
2023-03-14T08:14:27.696Z,1.02
2023-03-14T08:16:54.301Z,1.01
2023-03-14T08:19:21.720Z,1.08
2023-03-14T08:21:48.237Z,1.08
2023-03-14T08:24:14.750Z,0.96
2023-03-14T08:26:43.138Z,0.86
2023-03-14T08:29:09.707Z,0.83
2023-03-14T08:31:36.634Z,0.73
2023-03-14T08:34:03.554Z,0.76
2023-03-14T08:36:30.173Z,0.83
2023-03-14T08:38:57.753Z,0.91
2023-03-14T08:41:24.276Z,0.68
2023-03-14T08:43:50.874Z,0.61
2023-03-14T08:46:17.498Z,0.75
2023-03-14T08:48:44.117Z,0.78
2023-03-14T08:51:14.813Z,0.70
2023-03-14T08:53:42.121Z,0.62
2023-03-14T08:56:10.856Z,0.72
2023-03-14T08:58:38.943Z,0.88
2023-03-14T09:01:06.836Z,1.03
2023-03-14T09:03:33.383Z,0.94
2023-03-14T09:06:10.718Z,0.97
2023-03-14T09:08:39.462Z,1.09
2023-03-14T09:11:08.591Z,1.11
2023-03-14T09:13:35.170Z,1.24
2023-03-14T09:16:01.730Z,1.38
2023-03-14T09:18:28.261Z,1.47
2023-03-14T09:20:56.254Z,1.41
2023-03-14T09:23:22.810Z,1.26
2023-03-14T09:25:49.366Z,1.57
2023-03-14T09:28:15.935Z,1.49
2023-03-14T09:30:42.532Z,1.81
2023-03-14T09:33:09.158Z,2.00
2023-03-14T09:35:35.761Z,1.93
2023-03-14T09:38:02.724Z,1.96
2023-03-14T09:40:35.747Z,2.06
2023-03-14T09:43:03.113Z,2.12
2023-03-14T09:45:37.935Z,1.99
2023-03-14T09:48:05.937Z,2.22
2023-03-14T09:50:45.507Z,1.97
2023-03-14T09:53:17.980Z,2.16
2023-03-14T09:55:46.581Z,2.37
2023-03-14T09:58:15.527Z,2.63
2023-03-14T10:00:42.032Z,2.55
2023-03-14T10:03:42.416Z,2.32
2023-03-14T10:06:14.581Z,2.31
2023-03-14T10:08:45.368Z,2.33
2023-03-14T10:11:17.496Z,2.42
2023-03-14T10:14:03.761Z,2.26
2023-03-14T10:16:33.047Z,2.27
2023-03-14T10:19:10.475Z,2.58
2023-03-14T10:21:41.106Z,2.83
2023-03-14T10:24:25.729Z,2.50
2023-03-14T10:26:59.633Z,2.42
2023-03-14T10:29:26.292Z,2.51
2023-03-14T10:32:03.540Z,2.63
2023-03-14T10:34:39.813Z,2.64
2023-03-14T10:37:22.151Z,2.80
2023-03-14T10:39:53.111Z,2.77
2023-03-14T10:42:30.772Z,2.81
2023-03-14T10:44:59.901Z,2.76
2023-03-14T10:47:29.266Z,2.71
2023-03-14T10:49:57.632Z,2.78
2023-03-14T10:52:30.962Z,3.18
2023-03-14T10:55:10.701Z,3.25
2023-03-14T10:57:41.577Z,3.13
2023-03-14T11:00:20.248Z,3.29
2023-03-14T11:03:07.087Z,3.18
2023-03-14T11:05:59.434Z,3.30
2023-03-14T11:08:43.371Z,3.10
2023-03-14T11:11:19.642Z,3.30
2023-03-14T11:13:58.048Z,3.20
2023-03-14T11:16:45.981Z,3.30
2023-03-14T11:19:41.877Z,3.19
2023-03-14T11:22:29.969Z,3.08
2023-03-14T11:25:07.679Z,3.10
2023-03-14T11:27:40.284Z,2.84
2023-03-14T11:30:22.990Z,2.35
2023-03-14T11:33:04.627Z,2.44
2023-03-14T11:35:37.228Z,2.48
2023-03-14T11:38:30.665Z,2.76
2023-03-14T11:40:59.308Z,2.28
2023-03-14T11:43:28.511Z,2.30
2023-03-14T11:46:04.154Z,2.31
2023-03-14T11:48:38.259Z,2.13
2023-03-14T11:51:13.809Z,2.28
2023-03-14T11:53:41.740Z,2.26
2023-03-14T11:56:25.705Z,2.06
2023-03-14T11:58:59.857Z,2.11
2023-03-14T12:01:54.022Z,1.86
2023-03-14T12:04:35.967Z,1.79
2023-03-14T12:07:28.886Z,1.97
2023-03-14T12:09:56.789Z,1.88
2023-03-14T12:12:27.061Z,1.86
2023-03-14T12:15:00.822Z,2.06
2023-03-14T12:17:38.083Z,1.87
2023-03-14T12:20:18.137Z,1.93
2023-03-14T12:22:49.144Z,2.00
2023-03-14T12:25:20.417Z,2.29
2023-03-14T12:27:55.855Z,2.09
2023-03-14T12:30:33.935Z,1.79
2023-03-14T12:33:21.416Z,1.71
2023-03-14T12:35:53.361Z,1.78
2023-03-14T12:38:30.716Z,1.84
2023-03-14T12:41:15.500Z,1.82
2023-03-14T12:43:42.422Z,1.64
2023-03-14T12:46:08.996Z,1.57
2023-03-14T12:48:35.586Z,1.59
2023-03-14T12:51:05.965Z,1.67
2023-03-14T12:53:38.616Z,1.71
2023-03-14T12:56:18.205Z,1.55
2023-03-14T12:59:03.526Z,1.71
2023-03-14T13:01:30.137Z,1.65
2023-03-14T13:04:04.552Z,1.46
2023-03-14T13:06:57.803Z,1.53
2023-03-14T13:09:30.530Z,1.18
2023-03-14T13:12:03.784Z,1.42
2023-03-14T13:14:31.970Z,1.49
2023-03-14T13:17:19.266Z,1.32
2023-03-14T13:19:53.413Z,1.43
2023-03-14T13:22:28.930Z,1.16
2023-03-14T13:25:05.702Z,1.39
2023-03-14T13:27:35.467Z,1.32
2023-03-14T13:30:23.167Z,1.18
2023-03-14T13:32:51.051Z,1.41
2023-03-14T13:35:42.295Z,1.39
2023-03-14T13:38:21.249Z,1.23
2023-03-14T13:40:50.543Z,1.30
2023-03-14T13:43:44.467Z,1.40
2023-03-14T13:46:22.653Z,1.46
2023-03-14T13:49:07.718Z,1.51
2023-03-14T13:51:34.881Z,1.26
2023-03-14T13:54:03.865Z,1.61
2023-03-14T13:56:32.865Z,1.59
2023-03-14T13:58:59.520Z,1.53
2023-03-14T14:01:32.051Z,1.68
2023-03-14T14:04:06.792Z,1.65
2023-03-14T14:06:36.881Z,1.70
2023-03-14T14:09:17.887Z,1.86
2023-03-14T14:12:03.506Z,2.15
2023-03-14T14:14:41.768Z,1.81
2023-03-14T14:17:12.487Z,1.73
2023-03-14T14:19:40.737Z,1.80
2023-03-14T14:22:09.729Z,1.76
2023-03-14T14:24:38.012Z,1.56
2023-03-14T14:27:21.612Z,1.40
2023-03-14T14:29:59.363Z,1.39
2023-03-14T14:32:26.315Z,1.59
2023-03-14T14:34:55.633Z,1.58
2023-03-14T14:37:27.648Z,1.54
2023-03-14T14:39:57.956Z,1.52
2023-03-14T14:42:28.384Z,1.41
2023-03-14T14:44:57.102Z,1.61
2023-03-14T14:47:27.238Z,1.28
2023-03-14T14:49:56.258Z,1.41
2023-03-14T14:52:35.099Z,1.38
2023-03-14T14:55:02.936Z,1.71
2023-03-14T14:57:38.710Z,1.45
2023-03-14T15:00:13.218Z,1.38
2023-03-14T15:02:47.355Z,1.34
2023-03-14T15:05:17.045Z,1.39
2023-03-14T15:07:43.607Z,1.29
2023-03-14T15:10:16.052Z,1.51
2023-03-14T15:12:42.678Z,1.34
2023-03-14T15:15:10.773Z,1.50
2023-03-14T15:17:38.783Z,1.64
2023-03-14T15:20:07.537Z,1.46
2023-03-14T15:22:34.071Z,1.46
2023-03-14T15:25:00.681Z,1.55
2023-03-14T15:27:31.168Z,1.47
2023-03-14T15:29:57.752Z,1.55
2023-03-14T15:32:24.378Z,1.49
2023-03-14T15:34:51.038Z,1.36
2023-03-14T15:37:17.765Z,1.64
2023-03-14T15:39:44.799Z,1.41
2023-03-14T15:42:11.729Z,1.58
2023-03-14T15:44:39.982Z,1.40
2023-03-14T15:47:07.130Z,1.73
2023-03-14T15:49:33.704Z,1.59
2023-03-14T15:52:00.267Z,1.60
2023-03-14T15:54:30.044Z,1.44
2023-03-14T15:56:57.279Z,1.67
2023-03-14T15:59:24.768Z,1.61
2023-03-14T16:01:51.551Z,1.47
2023-03-14T16:04:18.650Z,1.68
2023-03-14T16:06:45.616Z,2.53
2023-03-14T16:09:13.264Z,1.71
2023-03-14T16:11:40.205Z,1.67
2023-03-14T16:14:07.213Z,1.75
2023-03-14T16:16:33.826Z,1.57
2023-03-14T16:19:00.370Z,1.75
2023-03-14T16:21:26.947Z,1.38
2023-03-14T16:23:53.552Z,2.02
2023-03-14T16:26:21.055Z,1.77
2023-03-14T16:28:47.983Z,1.86
2023-03-14T16:31:17.803Z,1.75
2023-03-14T16:33:45.047Z,2.12
2023-03-14T16:36:13.822Z,1.84
2023-03-14T16:38:42.084Z,2.16
2023-03-14T16:41:11.440Z,1.88
2023-03-14T16:43:38.356Z,1.74
2023-03-14T16:46:07.572Z,1.67
2023-03-14T16:48:34.779Z,1.80
2023-03-14T16:51:01.458Z,1.70
2023-03-14T16:53:29.928Z,2.37
2023-03-14T16:55:59.023Z,2.62
2023-03-14T16:58:25.970Z,2.68
2023-03-14T17:00:52.797Z,2.45
2023-03-14T17:03:19.471Z,1.85
2023-03-14T17:05:50.944Z,1.70
2023-03-14T17:08:19.012Z,1.96
2023-03-14T17:10:46.503Z,1.90
2023-03-14T17:13:13.644Z,1.75
2023-03-14T17:15:46.191Z,1.64
2023-03-14T17:18:12.837Z,1.78
2023-03-14T17:20:41.081Z,1.80
2023-03-14T17:23:07.909Z,1.55
2023-03-14T17:25:35.969Z,1.73
2023-03-14T17:28:02.480Z,1.45
2023-03-14T17:30:29.145Z,1.49
2023-03-14T17:32:57.399Z,1.60
2023-03-14T17:35:24.771Z,1.51
2023-03-14T17:37:51.402Z,3.10
2023-03-14T17:40:18.619Z,2.21
2023-03-14T17:42:45.265Z,1.81
2023-03-14T17:45:12.172Z,1.93
2023-03-14T17:47:38.768Z,1.60
2023-03-14T17:50:05.968Z,1.64
2023-03-14T17:52:33.489Z,1.73
2023-03-14T17:55:00.110Z,1.92
2023-03-14T17:57:27.417Z,2.43
2023-03-14T17:59:54.147Z,2.04
2023-03-14T18:02:22.142Z,1.74
2023-03-14T18:04:49.514Z,1.73
2023-03-14T18:07:16.271Z,1.84
2023-03-14T18:09:43.367Z,1.94
2023-03-14T18:12:09.973Z,2.76
2023-03-14T18:14:37.282Z,2.60
2023-03-14T18:17:05.376Z,2.77
2023-03-14T18:19:32.558Z,2.68
2023-03-14T18:21:59.177Z,3.05
2023-03-14T18:24:27.772Z,2.16
2023-03-14T18:26:55.317Z,2.45
2023-03-14T18:29:21.890Z,2.23
2023-03-14T18:31:48.520Z,3.48
2023-03-14T18:34:15.393Z,3.29
2023-03-14T18:36:41.943Z,2.65
2023-03-14T18:39:10.186Z,2.75
2023-03-14T18:41:36.913Z,4.52
2023-03-14T18:44:04.064Z,2.99
2023-03-14T18:46:30.848Z,2.16
2023-03-14T18:48:58.319Z,1.97
2023-03-14T18:51:26.728Z,2.45
2023-03-14T18:54:02.922Z,2.88
2023-03-14T18:56:34.856Z,2.33
2023-03-14T18:59:01.378Z,2.59
2023-03-14T19:01:31.259Z,2.41
2023-03-14T19:03:59.257Z,2.45
2023-03-14T19:06:28.014Z,7.44
2023-03-14T19:08:54.586Z,5.20
2023-03-14T19:11:21.112Z,3.33
2023-03-14T19:13:47.693Z,3.20
2023-03-14T19:16:16.005Z,2.33
2023-03-14T19:18:43.180Z,2.46
2023-03-14T19:21:12.446Z,2.77
2023-03-14T19:23:41.494Z,2.62
2023-03-14T19:26:09.637Z,2.17
2023-03-14T19:28:37.350Z,2.23
2023-03-14T19:31:05.011Z,3.13
2023-03-14T19:33:32.296Z,3.81
2023-03-14T19:35:59.040Z,3.84
2023-03-14T19:38:25.695Z,3.61
2023-03-14T19:40:58.542Z,3.23
2023-03-14T19:43:25.841Z,3.03
2023-03-14T19:45:52.691Z,3.05
2023-03-14T19:48:19.425Z,2.81
2023-03-14T19:50:45.977Z,2.77
2023-03-14T19:53:12.557Z,2.85
2023-03-14T19:55:39.115Z,2.74
2023-03-14T19:58:05.664Z,3.67
2023-03-14T20:00:32.280Z,3.58
2023-03-14T20:02:59.061Z,3.05
2023-03-14T20:05:25.782Z,3.21
2023-03-14T20:07:52.360Z,4.06
2023-03-14T20:10:22.955Z,3.60
2023-03-14T20:12:51.112Z,2.56
2023-03-14T20:15:20.189Z,3.64
2023-03-14T20:17:48.113Z,2.96
2023-03-14T20:20:16.008Z,2.81
2023-03-14T20:22:43.031Z,2.89
2023-03-14T20:25:16.466Z,2.84
2023-03-14T20:27:43.076Z,2.61
2023-03-14T20:30:12.965Z,2.44
2023-03-14T20:32:40.980Z,2.36
2023-03-14T20:35:10.266Z,2.42
2023-03-14T20:37:37.081Z,3.07
2023-03-14T20:40:07.305Z,3.12
2023-03-14T20:42:35.000Z,2.66
2023-03-14T20:45:01.615Z,2.52
2023-03-14T20:47:28.177Z,2.86
2023-03-14T20:49:54.694Z,2.86
2023-03-14T20:52:22.394Z,2.82
2023-03-14T20:54:48.962Z,3.21
2023-03-14T20:57:16.659Z,3.04
2023-03-14T20:59:43.608Z,2.84
2023-03-14T21:02:10.917Z,3.38
2023-03-14T21:04:38.474Z,3.27
2023-03-14T21:07:05.360Z,3.22
2023-03-14T21:09:31.954Z,3.23
2023-03-14T21:11:58.545Z,3.36
2023-03-14T21:14:25.322Z,3.18
2023-03-14T21:16:57.043Z,3.36
2023-03-14T21:19:30.837Z,2.99
2023-03-14T21:21:58.542Z,2.86
2023-03-14T21:24:25.748Z,2.97
2023-03-14T21:26:53.389Z,2.67
2023-03-14T21:29:21.438Z,2.80
2023-03-14T21:31:49.151Z,2.99
2023-03-14T21:34:16.120Z,2.60
2023-03-14T21:36:42.810Z,2.58
2023-03-14T21:39:09.457Z,2.12
2023-03-14T21:41:36.034Z,2.03
2023-03-14T21:44:02.567Z,1.68
2023-03-14T21:46:29.153Z,1.57
2023-03-14T21:48:55.725Z,1.62
2023-03-14T21:51:22.274Z,1.90
2023-03-14T21:53:48.812Z,2.06
2023-03-14T21:56:15.320Z,2.12
2023-03-14T21:58:41.834Z,2.44
2023-03-14T22:01:10.029Z,2.42
2023-03-14T22:03:36.601Z,2.05
2023-03-14T22:06:03.206Z,1.51
2023-03-14T22:08:29.788Z,1.28
2023-03-14T22:10:56.843Z,1.35
2023-03-14T22:13:25.511Z,1.29
2023-03-14T22:15:52.149Z,1.40
2023-03-14T22:18:19.337Z,1.29
2023-03-14T22:20:45.979Z,1.23
2023-03-14T22:23:13.182Z,1.43
2023-03-14T22:25:42.154Z,1.63
2023-03-14T22:28:09.585Z,1.34
2023-03-14T22:30:36.294Z,1.45
2023-03-14T22:33:03.657Z,1.86
2023-03-14T22:35:30.422Z,2.16
2023-03-14T22:37:57.029Z,1.76
2023-03-14T22:40:23.528Z,1.13
2023-03-14T22:42:53.544Z,0.84
2023-03-14T22:45:20.318Z,0.71
2023-03-14T22:47:46.871Z,0.76
2023-03-14T22:50:13.419Z,0.73
2023-03-14T22:52:40.232Z,0.56
2023-03-14T22:55:07.277Z,0.60
2023-03-14T22:57:34.025Z,0.48
2023-03-14T23:00:00.575Z,0.49
2023-03-14T23:02:27.140Z,0.45
2023-03-14T23:04:53.639Z,0.52
2023-03-14T23:07:20.253Z,0.51
2023-03-14T23:09:46.787Z,0.56
2023-03-14T23:12:17.573Z,0.59
2023-03-14T23:14:44.201Z,0.70
2023-03-14T23:17:10.804Z,0.65
2023-03-14T23:19:39.468Z,0.71
2023-03-14T23:22:09.602Z,0.78
2023-03-14T23:24:36.396Z,0.74
2023-03-14T23:27:03.371Z,0.61
2023-03-14T23:29:29.869Z,0.71
2023-03-14T23:31:56.426Z,0.72
2023-03-14T23:34:25.199Z,0.65
2023-03-14T23:36:51.865Z,0.71
2023-03-14T23:39:18.446Z,0.54
2023-03-14T23:41:44.997Z,0.44
2023-03-14T23:44:15.276Z,0.37
2023-03-14T23:46:41.778Z,0.37
2023-03-14T23:49:08.293Z,0.42
2023-03-14T23:51:34.844Z,0.45
2023-03-14T23:54:01.367Z,0.43
2023-03-14T23:56:27.915Z,0.43
2023-03-14T23:58:54.507Z,0.50
